Terminal Aerodrome Forecast
Issued by NWS Salt Lake City, UT

Home | Current Version | Previous Version | Text Only | Print | Product List | Glossary On
Versions: 1 2 3 4 5 6 7 8 9 10 11 12 13 14 15 16 17 18 19 20 21 22 23 24 25 26 27
000
FTUS45 KSLC 251157 AAA
TAFCDC
TAF AMD
KCDC 251157Z 2512/2612 20008KT P6SM SCT050 BKN100 OVC200
      TEMPO 2512/2513 5SM RA BKN025
     FM251500 20018G30KT P6SM -SHRA BKN035 OVC050
     FM260200 29012KT 3SM -SHRA BR BKN025 OVC035=

USA.gov is the U.S. government's official web portal to all federal, state and local government web resources and services.